sensor_id;sensor_type;location;lat;lon;timestamp;P1;durP1;ratioP1;P2;durP2;ratioP2
40244;SDS011;25963;42.694;23.600;2024-01-07T00:00:27;22.65;;;8.25;;
40244;SDS011;25963;42.694;23.600;2024-01-07T00:02:53;17.70;;;8.27;;
40244;SDS011;25963;42.694;23.600;2024-01-07T00:05:18;12.27;;;7.40;;
40244;SDS011;25963;42.694;23.600;2024-01-07T00:07:43;18.88;;;8.60;;
40244;SDS011;25963;42.694;23.600;2024-01-07T00:10:09;18.75;;;7.85;;
40244;SDS011;25963;42.694;23.600;2024-01-07T00:12:34;14.60;;;7.75;;
40244;SDS011;25963;42.694;23.600;2024-01-07T00:15:00;14.75;;;7.53;;
40244;SDS011;25963;42.694;23.600;2024-01-07T00:17:26;15.65;;;8.85;;
40244;SDS011;25963;42.694;23.600;2024-01-07T00:19:51;21.13;;;10.40;;
40244;SDS011;25963;42.694;23.600;2024-01-07T00:22:16;19.55;;;8.52;;
40244;SDS011;25963;42.694;23.600;2024-01-07T00:24:42;20.63;;;10.02;;
40244;SDS011;25963;42.694;23.600;2024-01-07T00:27:08;21.77;;;10.27;;
40244;SDS011;25963;42.694;23.600;2024-01-07T00:29:33;20.88;;;12.30;;
40244;SDS011;25963;42.694;23.600;2024-01-07T00:32:00;20.70;;;10.40;;
40244;SDS011;25963;42.694;23.600;2024-01-07T00:34:26;17.48;;;10.13;;
40244;SDS011;25963;42.694;23.600;2024-01-07T00:36:52;31.08;;;18.52;;
40244;SDS011;25963;42.694;23.600;2024-01-07T00:39:17;27.48;;;16.25;;
40244;SDS011;25963;42.694;23.600;2024-01-07T00:41:42;29.77;;;16.17;;
40244;SDS011;25963;42.694;23.600;2024-01-07T00:44:08;10.60;;;5.82;;
40244;SDS011;25963;42.694;23.600;2024-01-07T00:46:33;9.73;;;6.68;;
40244;SDS011;25963;42.694;23.600;2024-01-07T00:48:58;13.30;;;6.57;;
40244;SDS011;25963;42.694;23.600;2024-01-07T00:51:24;12.02;;;5.60;;
40244;SDS011;25963;42.694;23.600;2024-01-07T00:53:49;24.20;;;5.70;;
40244;SDS011;25963;42.694;23.600;2024-01-07T00:56:15;10.65;;;6.13;;
40244;SDS011;25963;42.694;23.600;2024-01-07T00:58:40;14.60;;;5.28;;
40244;SDS011;25963;42.694;23.600;2024-01-07T01:01:05;10.70;;;5.20;;
40244;SDS011;25963;42.694;23.600;2024-01-07T01:03:31;7.75;;;3.97;;
40244;SDS011;25963;42.694;23.600;2024-01-07T01:05:56;10.25;;;4.60;;
40244;SDS011;25963;42.694;23.600;2024-01-07T01:08:22;6.93;;;4.13;;
40244;SDS011;25963;42.694;23.600;2024-01-07T01:10:48;8.55;;;4.80;;
40244;SDS011;25963;42.694;23.600;2024-01-07T01:13:13;6.57;;;4.65;;
40244;SDS011;25963;42.694;23.600;2024-01-07T01:15:39;6.18;;;2.58;;
40244;SDS011;25963;42.694;23.600;2024-01-07T01:18:05;3.92;;;2.78;;
40244;SDS011;25963;42.694;23.600;2024-01-07T01:20:30;8.93;;;4.15;;
40244;SDS011;25963;42.694;23.600;2024-01-07T01:22:55;7.28;;;3.28;;
40244;SDS011;25963;42.694;23.600;2024-01-07T01:25:21;5.95;;;3.45;;
40244;SDS011;25963;42.694;23.600;2024-01-07T01:27:46;4.95;;;2.88;;
40244;SDS011;25963;42.694;23.600;2024-01-07T01:30:12;7.63;;;3.30;;
40244;SDS011;25963;42.694;23.600;2024-01-07T01:32:38;9.52;;;2.63;;
40244;SDS011;25963;42.694;23.600;2024-01-07T01:35:04;4.35;;;2.72;;
40244;SDS011;25963;42.694;23.600;2024-01-07T01:37:30;5.70;;;3.45;;
40244;SDS011;25963;42.694;23.600;2024-01-07T01:39:57;9.43;;;4.63;;
40244;SDS011;25963;42.694;23.600;2024-01-07T01:42:23;4.65;;;2.70;;
40244;SDS011;25963;42.694;23.600;2024-01-07T01:44:49;5.85;;;3.58;;
40244;SDS011;25963;42.694;23.600;2024-01-07T01:47:14;10.70;;;3.95;;
40244;SDS011;25963;42.694;23.600;2024-01-07T01:49:40;5.97;;;3.70;;
40244;SDS011;25963;42.694;23.600;2024-01-07T01:52:06;8.32;;;3.00;;
40244;SDS011;25963;42.694;23.600;2024-01-07T01:54:31;8.40;;;3.17;;
40244;SDS011;25963;42.694;23.600;2024-01-07T01:56:57;4.60;;;2.25;;
40244;SDS011;25963;42.694;23.600;2024-01-07T01:59:23;8.45;;;2.97;;
40244;SDS011;25963;42.694;23.600;2024-01-07T02:01:50;6.85;;;2.70;;
40244;SDS011;25963;42.694;23.600;2024-01-07T02:04:15;9.00;;;3.08;;
40244;SDS011;25963;42.694;23.600;2024-01-07T02:06:41;8.00;;;3.22;;
40244;SDS011;25963;42.694;23.600;2024-01-07T02:09:07;5.68;;;2.63;;
40244;SDS011;25963;42.694;23.600;2024-01-07T02:11:33;7.20;;;3.20;;
40244;SDS011;25963;42.694;23.600;2024-01-07T02:13:58;4.88;;;2.45;;
40244;SDS011;25963;42.694;23.600;2024-01-07T02:16:23;13.02;;;3.28;;
40244;SDS011;25963;42.694;23.600;2024-01-07T02:18:49;7.45;;;3.40;;
40244;SDS011;25963;42.694;23.600;2024-01-07T02:21:15;7.70;;;3.83;;
40244;SDS011;25963;42.694;23.600;2024-01-07T02:23:41;7.85;;;3.38;;
40244;SDS011;25963;42.694;23.600;2024-01-07T02:26:06;7.07;;;3.05;;
40244;SDS011;25963;42.694;23.600;2024-01-07T02:28:33;6.40;;;2.85;;
40244;SDS011;25963;42.694;23.600;2024-01-07T02:30:59;7.55;;;3.53;;
40244;SDS011;25963;42.694;23.600;2024-01-07T02:33:25;7.63;;;3.30;;
40244;SDS011;25963;42.694;23.600;2024-01-07T02:35:50;8.88;;;3.28;;
40244;SDS011;25963;42.694;23.600;2024-01-07T02:38:16;6.95;;;3.10;;
40244;SDS011;25963;42.694;23.600;2024-01-07T02:40:41;7.72;;;4.00;;
40244;SDS011;25963;42.694;23.600;2024-01-07T02:43:07;14.02;;;3.65;;
40244;SDS011;25963;42.694;23.600;2024-01-07T02:45:33;10.98;;;3.83;;
40244;SDS011;25963;42.694;23.600;2024-01-07T02:47:59;7.10;;;3.47;;
40244;SDS011;25963;42.694;23.600;2024-01-07T02:50:24;8.00;;;3.35;;
40244;SDS011;25963;42.694;23.600;2024-01-07T02:52:49;10.52;;;3.90;;
40244;SDS011;25963;42.694;23.600;2024-01-07T02:55:15;7.28;;;3.20;;
40244;SDS011;25963;42.694;23.600;2024-01-07T02:57:41;6.80;;;3.22;;
40244;SDS011;25963;42.694;23.600;2024-01-07T03:00:06;9.90;;;3.50;;
40244;SDS011;25963;42.694;23.600;2024-01-07T03:02:33;6.75;;;3.53;;
40244;SDS011;25963;42.694;23.600;2024-01-07T03:04:58;13.10;;;4.40;;
40244;SDS011;25963;42.694;23.600;2024-01-07T03:07:24;9.23;;;4.68;;
40244;SDS011;25963;42.694;23.600;2024-01-07T03:09:49;5.30;;;3.22;;
40244;SDS011;25963;42.694;23.600;2024-01-07T03:12:15;9.27;;;3.20;;
40244;SDS011;25963;42.694;23.600;2024-01-07T03:14:41;22.60;;;5.65;;
40244;SDS011;25963;42.694;23.600;2024-01-07T03:17:06;9.98;;;3.38;;
40244;SDS011;25963;42.694;23.600;2024-01-07T03:19:32;6.80;;;3.90;;
40244;SDS011;25963;42.694;23.600;2024-01-07T03:21:57;66.63;;;32.33;;
40244;SDS011;25963;42.694;23.600;2024-01-07T03:24:23;96.72;;;41.95;;
40244;SDS011;25963;42.694;23.600;2024-01-07T03:26:49;22.10;;;10.27;;
40244;SDS011;25963;42.694;23.600;2024-01-07T03:29:14;154.23;;;60.03;;
40244;SDS011;25963;42.694;23.600;2024-01-07T03:31:39;215.00;;;77.40;;
40244;SDS011;25963;42.694;23.600;2024-01-07T03:34:05;413.08;;;149.75;;
40244;SDS011;25963;42.694;23.600;2024-01-07T03:36:30;94.32;;;33.28;;
40244;SDS011;25963;42.694;23.600;2024-01-07T03:38:56;56.35;;;20.05;;
40244;SDS011;25963;42.694;23.600;2024-01-07T03:41:21;192.13;;;60.45;;
40244;SDS011;25963;42.694;23.600;2024-01-07T03:43:47;409.52;;;126.68;;
40244;SDS011;25963;42.694;23.600;2024-01-07T03:46:13;185.23;;;59.38;;
40244;SDS011;25963;42.694;23.600;2024-01-07T03:48:38;50.47;;;17.33;;
40244;SDS011;25963;42.694;23.600;2024-01-07T03:51:04;18.88;;;8.30;;
40244;SDS011;25963;42.694;23.600;2024-01-07T03:53:29;178.85;;;46.78;;
40244;SDS011;25963;42.694;23.600;2024-01-07T03:55:55;27.75;;;9.73;;
40244;SDS011;25963;42.694;23.600;2024-01-07T03:58:20;10.25;;;4.10;;
40244;SDS011;25963;42.694;23.600;2024-01-07T04:00:45;15.68;;;5.90;;
40244;SDS011;25963;42.694;23.600;2024-01-07T04:03:11;16.42;;;9.68;;
40244;SDS011;25963;42.694;23.600;2024-01-07T04:05:36;16.65;;;10.80;;
40244;SDS011;25963;42.694;23.600;2024-01-07T04:08:03;18.48;;;11.23;;
40244;SDS011;25963;42.694;23.600;2024-01-07T04:10:29;16.95;;;11.43;;
40244;SDS011;25963;42.694;23.600;2024-01-07T04:12:54;17.30;;;10.32;;
40244;SDS011;25963;42.694;23.600;2024-01-07T04:15:20;18.88;;;10.50;;
40244;SDS011;25963;42.694;23.600;2024-01-07T04:17:46;30.95;;;18.35;;
40244;SDS011;25963;42.694;23.600;2024-01-07T04:20:14;59.28;;;32.40;;
40244;SDS011;25963;42.694;23.600;2024-01-07T04:22:40;31.00;;;18.02;;
40244;SDS011;25963;42.694;23.600;2024-01-07T04:25:05;23.33;;;14.20;;
40244;SDS011;25963;42.694;23.600;2024-01-07T04:27:35;20.83;;;14.90;;
40244;SDS011;25963;42.694;23.600;2024-01-07T04:30:01;24.83;;;15.55;;
40244;SDS011;25963;42.694;23.600;2024-01-07T04:32:27;18.02;;;11.75;;
40244;SDS011;25963;42.694;23.600;2024-01-07T04:34:52;20.48;;;11.85;;
40244;SDS011;25963;42.694;23.600;2024-01-07T04:37:17;21.95;;;12.73;;
40244;SDS011;25963;42.694;23.600;2024-01-07T04:39:43;18.83;;;11.98;;
40244;SDS011;25963;42.694;23.600;2024-01-07T04:42:08;16.73;;;11.23;;
40244;SDS011;25963;42.694;23.600;2024-01-07T04:44:34;19.90;;;13.43;;
40244;SDS011;25963;42.694;23.600;2024-01-07T04:46:59;25.92;;;15.90;;
40244;SDS011;25963;42.694;23.600;2024-01-07T04:49:25;32.72;;;21.58;;
40244;SDS011;25963;42.694;23.600;2024-01-07T04:51:50;36.88;;;22.17;;
40244;SDS011;25963;42.694;23.600;2024-01-07T04:54:16;35.03;;;22.13;;
40244;SDS011;25963;42.694;23.600;2024-01-07T04:56:41;36.58;;;21.80;;
40244;SDS011;25963;42.694;23.600;2024-01-07T04:59:07;30.75;;;21.05;;
40244;SDS011;25963;42.694;23.600;2024-01-07T05:01:32;27.42;;;19.73;;
40244;SDS011;25963;42.694;23.600;2024-01-07T05:03:58;31.40;;;20.02;;
40244;SDS011;25963;42.694;23.600;2024-01-07T05:06:24;31.17;;;18.42;;
40244;SDS011;25963;42.694;23.600;2024-01-07T05:08:49;26.58;;;17.38;;
40244;SDS011;25963;42.694;23.600;2024-01-07T05:11:15;26.67;;;16.60;;
40244;SDS011;25963;42.694;23.600;2024-01-07T05:13:42;23.83;;;16.08;;
40244;SDS011;25963;42.694;23.600;2024-01-07T05:16:07;25.35;;;17.33;;
40244;SDS011;25963;42.694;23.600;2024-01-07T05:18:33;29.88;;;16.95;;
40244;SDS011;25963;42.694;23.600;2024-01-07T05:20:58;24.70;;;14.07;;
40244;SDS011;25963;42.694;23.600;2024-01-07T05:23:24;28.80;;;15.57;;
40244;SDS011;25963;42.694;23.600;2024-01-07T05:25:49;32.83;;;16.35;;
40244;SDS011;25963;42.694;23.600;2024-01-07T05:28:15;22.73;;;15.95;;
40244;SDS011;25963;42.694;23.600;2024-01-07T05:30:44;22.30;;;16.13;;
40244;SDS011;25963;42.694;23.600;2024-01-07T05:33:09;24.42;;;14.45;;
40244;SDS011;25963;42.694;23.600;2024-01-07T05:35:35;22.88;;;14.80;;
40244;SDS011;25963;42.694;23.600;2024-01-07T05:38:01;23.92;;;14.77;;
40244;SDS011;25963;42.694;23.600;2024-01-07T05:40:26;20.50;;;14.10;;
40244;SDS011;25963;42.694;23.600;2024-01-07T05:42:51;404.85;;;139.90;;
40244;SDS011;25963;42.694;23.600;2024-01-07T05:45:17;83.97;;;42.33;;
40244;SDS011;25963;42.694;23.600;2024-01-07T05:47:42;63.50;;;36.08;;
40244;SDS011;25963;42.694;23.600;2024-01-07T05:50:08;58.75;;;38.92;;
40244;SDS011;25963;42.694;23.600;2024-01-07T05:52:34;61.85;;;38.15;;
40244;SDS011;25963;42.694;23.600;2024-01-07T05:54:59;53.00;;;32.58;;
40244;SDS011;25963;42.694;23.600;2024-01-07T05:57:25;55.38;;;38.80;;
40244;SDS011;25963;42.694;23.600;2024-01-07T05:59:51;61.65;;;38.03;;
40244;SDS011;25963;42.694;23.600;2024-01-07T06:02:19;63.25;;;36.58;;
40244;SDS011;25963;42.694;23.600;2024-01-07T06:04:44;57.03;;;34.60;;
40244;SDS011;25963;42.694;23.600;2024-01-07T06:07:10;60.70;;;36.13;;
40244;SDS011;25963;42.694;23.600;2024-01-07T06:09:35;58.33;;;36.83;;
40244;SDS011;25963;42.694;23.600;2024-01-07T06:12:01;51.10;;;34.20;;
40244;SDS011;25963;42.694;23.600;2024-01-07T06:14:26;80.55;;;44.42;;
40244;SDS011;25963;42.694;23.600;2024-01-07T06:16:52;101.10;;;58.92;;
40244;SDS011;25963;42.694;23.600;2024-01-07T06:19:17;80.72;;;47.97;;
40244;SDS011;25963;42.694;23.600;2024-01-07T06:21:43;63.15;;;38.92;;
40244;SDS011;25963;42.694;23.600;2024-01-07T06:24:09;118.75;;;72.55;;
40244;SDS011;25963;42.694;23.600;2024-01-07T06:26:34;47.70;;;31.50;;
40244;SDS011;25963;42.694;23.600;2024-01-07T06:29:00;47.28;;;30.25;;
40244;SDS011;25963;42.694;23.600;2024-01-07T06:31:26;53.67;;;31.17;;
40244;SDS011;25963;42.694;23.600;2024-01-07T06:33:51;69.35;;;40.85;;
40244;SDS011;25963;42.694;23.600;2024-01-07T06:36:17;111.50;;;63.47;;
40244;SDS011;25963;42.694;23.600;2024-01-07T06:38:42;117.75;;;68.88;;
40244;SDS011;25963;42.694;23.600;2024-01-07T06:41:09;96.55;;;59.17;;
40244;SDS011;25963;42.694;23.600;2024-01-07T06:43:35;114.72;;;62.90;;
40244;SDS011;25963;42.694;23.600;2024-01-07T06:46:00;88.53;;;49.40;;
40244;SDS011;25963;42.694;23.600;2024-01-07T06:48:26;70.32;;;46.33;;
40244;SDS011;25963;42.694;23.600;2024-01-07T06:50:51;53.22;;;32.65;;
40244;SDS011;25963;42.694;23.600;2024-01-07T06:53:17;51.45;;;30.65;;
40244;SDS011;25963;42.694;23.600;2024-01-07T06:55:42;47.33;;;31.42;;
40244;SDS011;25963;42.694;23.600;2024-01-07T06:58:08;53.83;;;32.20;;
40244;SDS011;25963;42.694;23.600;2024-01-07T07:00:33;57.63;;;33.15;;
40244;SDS011;25963;42.694;23.600;2024-01-07T07:02:58;63.22;;;36.13;;
40244;SDS011;25963;42.694;23.600;2024-01-07T07:05:24;61.17;;;33.10;;
40244;SDS011;25963;42.694;23.600;2024-01-07T07:07:49;67.65;;;36.25;;
40244;SDS011;25963;42.694;23.600;2024-01-07T07:10:14;145.63;;;71.82;;
40244;SDS011;25963;42.694;23.600;2024-01-07T07:12:40;85.72;;;46.20;;
40244;SDS011;25963;42.694;23.600;2024-01-07T07:15:06;57.88;;;33.15;;
40244;SDS011;25963;42.694;23.600;2024-01-07T07:17:31;60.38;;;32.67;;
40244;SDS011;25963;42.694;23.600;2024-01-07T07:19:56;59.78;;;33.72;;
40244;SDS011;25963;42.694;23.600;2024-01-07T07:22:22;58.55;;;33.63;;
40244;SDS011;25963;42.694;23.600;2024-01-07T07:24:48;57.85;;;33.65;;
40244;SDS011;25963;42.694;23.600;2024-01-07T07:27:13;59.78;;;36.78;;
40244;SDS011;25963;42.694;23.600;2024-01-07T07:29:38;57.28;;;33.63;;
40244;SDS011;25963;42.694;23.600;2024-01-07T07:32:04;62.05;;;36.78;;
40244;SDS011;25963;42.694;23.600;2024-01-07T07:34:30;55.10;;;33.50;;
40244;SDS011;25963;42.694;23.600;2024-01-07T07:36:55;51.47;;;30.50;;
40244;SDS011;25963;42.694;23.600;2024-01-07T07:39:21;48.35;;;29.52;;
40244;SDS011;25963;42.694;23.600;2024-01-07T07:41:46;43.33;;;28.98;;
40244;SDS011;25963;42.694;23.600;2024-01-07T07:44:13;51.30;;;33.45;;
40244;SDS011;25963;42.694;23.600;2024-01-07T07:46:38;46.38;;;29.75;;
40244;SDS011;25963;42.694;23.600;2024-01-07T07:49:04;48.42;;;31.73;;
40244;SDS011;25963;42.694;23.600;2024-01-07T07:51:29;48.08;;;32.47;;
40244;SDS011;25963;42.694;23.600;2024-01-07T07:53:55;88.60;;;57.67;;
40244;SDS011;25963;42.694;23.600;2024-01-07T07:56:20;46.28;;;32.80;;
40244;SDS011;25963;42.694;23.600;2024-01-07T07:58:46;41.72;;;30.42;;
40244;SDS011;25963;42.694;23.600;2024-01-07T08:01:11;39.67;;;26.65;;
40244;SDS011;25963;42.694;23.600;2024-01-07T08:03:37;35.65;;;26.08;;
40244;SDS011;25963;42.694;23.600;2024-01-07T08:06:02;35.97;;;26.25;;
40244;SDS011;25963;42.694;23.600;2024-01-07T08:08:28;35.15;;;25.52;;
40244;SDS011;25963;42.694;23.600;2024-01-07T08:10:53;34.30;;;25.55;;
40244;SDS011;25963;42.694;23.600;2024-01-07T08:13:19;34.90;;;24.33;;
40244;SDS011;25963;42.694;23.600;2024-01-07T08:15:44;32.95;;;23.08;;
40244;SDS011;25963;42.694;23.600;2024-01-07T08:18:10;33.08;;;23.38;;
40244;SDS011;25963;42.694;23.600;2024-01-07T08:20:35;33.95;;;23.67;;
40244;SDS011;25963;42.694;23.600;2024-01-07T08:23:01;35.97;;;24.60;;
40244;SDS011;25963;42.694;23.600;2024-01-07T08:25:26;34.42;;;23.33;;
40244;SDS011;25963;42.694;23.600;2024-01-07T08:27:52;31.35;;;22.10;;
40244;SDS011;25963;42.694;23.600;2024-01-07T08:30:17;32.22;;;23.83;;
40244;SDS011;25963;42.694;23.600;2024-01-07T08:32:42;32.65;;;22.23;;
40244;SDS011;25963;42.694;23.600;2024-01-07T08:35:08;41.10;;;26.50;;
40244;SDS011;25963;42.694;23.600;2024-01-07T08:37:34;35.25;;;24.40;;
40244;SDS011;25963;42.694;23.600;2024-01-07T08:40:00;40.15;;;25.55;;
40244;SDS011;25963;42.694;23.600;2024-01-07T08:42:26;32.90;;;23.98;;
40244;SDS011;25963;42.694;23.600;2024-01-07T08:44:51;36.63;;;25.42;;
40244;SDS011;25963;42.694;23.600;2024-01-07T08:47:17;39.00;;;27.80;;
40244;SDS011;25963;42.694;23.600;2024-01-07T08:49:42;40.78;;;27.23;;
40244;SDS011;25963;42.694;23.600;2024-01-07T08:52:08;38.30;;;25.77;;
40244;SDS011;25963;42.694;23.600;2024-01-07T08:54:33;29.17;;;20.58;;
40244;SDS011;25963;42.694;23.600;2024-01-07T08:57:00;27.33;;;18.33;;
40244;SDS011;25963;42.694;23.600;2024-01-07T08:59:25;16.33;;;12.23;;
40244;SDS011;25963;42.694;23.600;2024-01-07T09:01:51;12.23;;;9.45;;
40244;SDS011;25963;42.694;23.600;2024-01-07T09:04:16;13.90;;;10.27;;
40244;SDS011;25963;42.694;23.600;2024-01-07T09:06:43;12.00;;;9.55;;
40244;SDS011;25963;42.694;23.600;2024-01-07T09:09:09;13.10;;;10.60;;
40244;SDS011;25963;42.694;23.600;2024-01-07T09:11:34;15.68;;;10.88;;
40244;SDS011;25963;42.694;23.600;2024-01-07T09:14:01;13.90;;;10.00;;
40244;SDS011;25963;42.694;23.600;2024-01-07T09:16:28;13.77;;;9.95;;
40244;SDS011;25963;42.694;23.600;2024-01-07T09:18:53;9.80;;;6.80;;
40244;SDS011;25963;42.694;23.600;2024-01-07T09:21:19;9.35;;;6.20;;
40244;SDS011;25963;42.694;23.600;2024-01-07T09:23:44;8.98;;;5.93;;
40244;SDS011;25963;42.694;23.600;2024-01-07T09:26:10;6.70;;;5.28;;
40244;SDS011;25963;42.694;23.600;2024-01-07T09:28:36;8.35;;;6.70;;
40244;SDS011;25963;42.694;23.600;2024-01-07T09:31:01;7.30;;;6.00;;
40244;SDS011;25963;42.694;23.600;2024-01-07T09:33:27;8.75;;;6.57;;
40244;SDS011;25963;42.694;23.600;2024-01-07T09:35:52;9.60;;;6.68;;
40244;SDS011;25963;42.694;23.600;2024-01-07T09:38:21;6.78;;;5.75;;
40244;SDS011;25963;42.694;23.600;2024-01-07T09:40:46;7.68;;;5.40;;
40244;SDS011;25963;42.694;23.600;2024-01-07T09:43:12;6.43;;;5.20;;
40244;SDS011;25963;42.694;23.600;2024-01-07T09:45:41;7.55;;;6.10;;
40244;SDS011;25963;42.694;23.600;2024-01-07T09:48:08;5.55;;;3.63;;
40244;SDS011;25963;42.694;23.600;2024-01-07T09:50:33;5.85;;;5.13;;
40244;SDS011;25963;42.694;23.600;2024-01-07T09:52:59;6.32;;;3.42;;
40244;SDS011;25963;42.694;23.600;2024-01-07T09:55:33;6.35;;;4.05;;
40244;SDS011;25963;42.694;23.600;2024-01-07T09:58:05;3.95;;;3.00;;
40244;SDS011;25963;42.694;23.600;2024-01-07T10:00:30;4.40;;;3.03;;
40244;SDS011;25963;42.694;23.600;2024-01-07T10:02:57;3.13;;;2.20;;
40244;SDS011;25963;42.694;23.600;2024-01-07T10:05:22;240.27;;;78.28;;
40244;SDS011;25963;42.694;23.600;2024-01-07T10:07:47;10.80;;;5.47;;
40244;SDS011;25963;42.694;23.600;2024-01-07T10:10:16;16.50;;;7.30;;
40244;SDS011;25963;42.694;23.600;2024-01-07T10:12:45;54.75;;;16.85;;
40244;SDS011;25963;42.694;23.600;2024-01-07T10:17:42;3.50;;;3.20;;
40244;SDS011;25963;42.694;23.600;2024-01-07T10:20:08;4.50;;;3.58;;
40244;SDS011;25963;42.694;23.600;2024-01-07T10:22:38;6.93;;;5.00;;
40244;SDS011;25963;42.694;23.600;2024-01-07T10:25:04;5.00;;;3.85;;
40244;SDS011;25963;42.694;23.600;2024-01-07T10:27:33;6.20;;;3.72;;
40244;SDS011;25963;42.694;23.600;2024-01-07T10:29:59;5.35;;;4.10;;
40244;SDS011;25963;42.694;23.600;2024-01-07T10:32:26;6.03;;;4.35;;
40244;SDS011;25963;42.694;23.600;2024-01-07T10:34:51;8.07;;;4.45;;
40244;SDS011;25963;42.694;23.600;2024-01-07T10:37:28;5.55;;;3.60;;
40244;SDS011;25963;42.694;23.600;2024-01-07T10:39:54;6.15;;;4.63;;
40244;SDS011;25963;42.694;23.600;2024-01-07T10:42:22;4.03;;;3.08;;
40244;SDS011;25963;42.694;23.600;2024-01-07T10:44:48;7.32;;;4.07;;
40244;SDS011;25963;42.694;23.600;2024-01-07T10:47:14;5.78;;;3.42;;
40244;SDS011;25963;42.694;23.600;2024-01-07T10:49:42;7.40;;;4.30;;
40244;SDS011;25963;42.694;23.600;2024-01-07T10:52:09;6.05;;;3.65;;
40244;SDS011;25963;42.694;23.600;2024-01-07T10:54:36;5.32;;;3.17;;
40244;SDS011;25963;42.694;23.600;2024-01-07T10:59:50;6.38;;;3.78;;
40244;SDS011;25963;42.694;23.600;2024-01-07T11:02:17;7.22;;;3.53;;
40244;SDS011;25963;42.694;23.600;2024-01-07T11:05:29;6.43;;;4.00;;
40244;SDS011;25963;42.694;23.600;2024-01-07T11:08:15;5.80;;;2.70;;
40244;SDS011;25963;42.694;23.600;2024-01-07T11:10:51;4.38;;;2.58;;
40244;SDS011;25963;42.694;23.600;2024-01-07T11:13:35;3.88;;;3.13;;
40244;SDS011;25963;42.694;23.600;2024-01-07T11:16:03;3.33;;;2.55;;
40244;SDS011;25963;42.694;23.600;2024-01-07T11:21:03;4.03;;;2.78;;
40244;SDS011;25963;42.694;23.600;2024-01-07T11:23:32;5.40;;;2.90;;
40244;SDS011;25963;42.694;23.600;2024-01-07T11:26:01;4.88;;;3.45;;
40244;SDS011;25963;42.694;23.600;2024-01-07T11:31:18;3.85;;;2.67;;
40244;SDS011;25963;42.694;23.600;2024-01-07T11:33:46;5.80;;;4.38;;
40244;SDS011;25963;42.694;23.600;2024-01-07T11:36:13;4.80;;;2.45;;
40244;SDS011;25963;42.694;23.600;2024-01-07T11:38:42;6.88;;;3.35;;
40244;SDS011;25963;42.694;23.600;2024-01-07T11:41:14;4.00;;;2.63;;
40244;SDS011;25963;42.694;23.600;2024-01-07T11:43:56;3.65;;;2.83;;
40244;SDS011;25963;42.694;23.600;2024-01-07T11:46:26;5.97;;;3.92;;
40244;SDS011;25963;42.694;23.600;2024-01-07T11:48:53;7.68;;;4.10;;
40244;SDS011;25963;42.694;23.600;2024-01-07T11:51:24;6.70;;;3.25;;
40244;SDS011;25963;42.694;23.600;2024-01-07T11:54:00;8.93;;;2.88;;
40244;SDS011;25963;42.694;23.600;2024-01-07T11:56:26;5.22;;;3.58;;
40244;SDS011;25963;42.694;23.600;2024-01-07T11:58:55;10.50;;;5.93;;
40244;SDS011;25963;42.694;23.600;2024-01-07T12:01:23;7.90;;;4.57;;
40244;SDS011;25963;42.694;23.600;2024-01-07T12:03:51;5.10;;;3.33;;
40244;SDS011;25963;42.694;23.600;2024-01-07T12:06:16;7.20;;;4.32;;
40244;SDS011;25963;42.694;23.600;2024-01-07T12:08:44;7.05;;;5.20;;
40244;SDS011;25963;42.694;23.600;2024-01-07T12:11:13;5.30;;;2.42;;
40244;SDS011;25963;42.694;23.600;2024-01-07T12:13:40;7.68;;;3.20;;
40244;SDS011;25963;42.694;23.600;2024-01-07T12:16:07;4.70;;;3.78;;
40244;SDS011;25963;42.694;23.600;2024-01-07T12:18:35;5.57;;;3.92;;
40244;SDS011;25963;42.694;23.600;2024-01-07T12:21:01;8.02;;;4.63;;
40244;SDS011;25963;42.694;23.600;2024-01-07T12:23:27;7.75;;;4.45;;
40244;SDS011;25963;42.694;23.600;2024-01-07T12:25:53;8.45;;;6.05;;
40244;SDS011;25963;42.694;23.600;2024-01-07T12:28:19;25.27;;;15.48;;
40244;SDS011;25963;42.694;23.600;2024-01-07T12:30:45;3.10;;;2.10;;
40244;SDS011;25963;42.694;23.600;2024-01-07T12:33:10;3.47;;;2.35;;
40244;SDS011;25963;42.694;23.600;2024-01-07T12:35:36;29.55;;;16.50;;
40244;SDS011;25963;42.694;23.600;2024-01-07T12:38:02;19.35;;;11.05;;
40244;SDS011;25963;42.694;23.600;2024-01-07T12:40:28;16.48;;;9.25;;
40244;SDS011;25963;42.694;23.600;2024-01-07T12:42:53;14.13;;;9.32;;
40244;SDS011;25963;42.694;23.600;2024-01-07T12:45:18;23.13;;;15.95;;
40244;SDS011;25963;42.694;23.600;2024-01-07T12:47:44;22.52;;;10.77;;
40244;SDS011;25963;42.694;23.600;2024-01-07T12:50:11;16.25;;;8.23;;
40244;SDS011;25963;42.694;23.600;2024-01-07T12:52:37;10.60;;;5.68;;
40244;SDS011;25963;42.694;23.600;2024-01-07T12:55:03;12.10;;;6.60;;
40244;SDS011;25963;42.694;23.600;2024-01-07T12:57:30;9.07;;;5.78;;
40244;SDS011;25963;42.694;23.600;2024-01-07T12:59:55;14.10;;;9.98;;
40244;SDS011;25963;42.694;23.600;2024-01-07T13:02:20;21.45;;;11.48;;
40244;SDS011;25963;42.694;23.600;2024-01-07T13:04:46;14.82;;;8.13;;
40244;SDS011;25963;42.694;23.600;2024-01-07T13:07:11;25.98;;;12.93;;
40244;SDS011;25963;42.694;23.600;2024-01-07T13:09:37;13.13;;;7.40;;
40244;SDS011;25963;42.694;23.600;2024-01-07T13:12:02;11.05;;;6.70;;
40244;SDS011;25963;42.694;23.600;2024-01-07T13:14:29;9.45;;;5.32;;
40244;SDS011;25963;42.694;23.600;2024-01-07T13:16:55;12.35;;;6.70;;
40244;SDS011;25963;42.694;23.600;2024-01-07T13:19:20;8.90;;;5.72;;
40244;SDS011;25963;42.694;23.600;2024-01-07T13:21:45;12.40;;;6.60;;
40244;SDS011;25963;42.694;23.600;2024-01-07T13:24:11;9.63;;;6.32;;
40244;SDS011;25963;42.694;23.600;2024-01-07T13:26:37;56.53;;;27.13;;
40244;SDS011;25963;42.694;23.600;2024-01-07T13:29:02;22.17;;;10.80;;
40244;SDS011;25963;42.694;23.600;2024-01-07T13:31:28;13.70;;;7.00;;
40244;SDS011;25963;42.694;23.600;2024-01-07T13:33:54;73.45;;;36.15;;
40244;SDS011;25963;42.694;23.600;2024-01-07T13:36:20;67.05;;;32.17;;
40244;SDS011;25963;42.694;23.600;2024-01-07T13:38:45;77.63;;;39.47;;
40244;SDS011;25963;42.694;23.600;2024-01-07T13:41:15;56.33;;;28.77;;
40244;SDS011;25963;42.694;23.600;2024-01-07T13:43:41;82.18;;;36.80;;
40244;SDS011;25963;42.694;23.600;2024-01-07T13:46:06;65.25;;;28.85;;
40244;SDS011;25963;42.694;23.600;2024-01-07T13:48:31;22.80;;;12.85;;
40244;SDS011;25963;42.694;23.600;2024-01-07T13:50:57;15.18;;;9.38;;
40244;SDS011;25963;42.694;23.600;2024-01-07T13:53:23;13.15;;;8.38;;
40244;SDS011;25963;42.694;23.600;2024-01-07T13:55:48;46.58;;;29.40;;
40244;SDS011;25963;42.694;23.600;2024-01-07T13:58:14;22.48;;;15.40;;
40244;SDS011;25963;42.694;23.600;2024-01-07T14:00:40;22.23;;;15.82;;
40244;SDS011;25963;42.694;23.600;2024-01-07T14:03:06;22.77;;;16.88;;
40244;SDS011;25963;42.694;23.600;2024-01-07T14:05:32;26.83;;;16.13;;
40244;SDS011;25963;42.694;23.600;2024-01-07T14:07:57;30.23;;;19.45;;
40244;SDS011;25963;42.694;23.600;2024-01-07T14:10:22;37.38;;;23.75;;
40244;SDS011;25963;42.694;23.600;2024-01-07T14:12:48;22.58;;;14.80;;
40244;SDS011;25963;42.694;23.600;2024-01-07T14:15:13;13.70;;;8.80;;
40244;SDS011;25963;42.694;23.600;2024-01-07T14:17:39;23.48;;;14.00;;
40244;SDS011;25963;42.694;23.600;2024-01-07T14:20:08;32.40;;;23.80;;
40244;SDS011;25963;42.694;23.600;2024-01-07T14:22:34;21.33;;;17.13;;